Time;durP1;ratioP1;P1;durP2;ratioP2;P2;SDS_P1;SDS_P2;PMS_P1;PMS_P2;Temp;Humidity;BMP_temperature;BMP_pressure;BME280_temperature;BME280_humidity;BME280_pressure;Samples;Min_cycle;Max_cycle;Signal;HPM_P1;HPM_P2
2022/03/14 00:00:39;;;;;;;18.15;10.45;;;;;;;8.35;61.04;101774.94;6253032;23;20016;-88
2022/03/14 00:03:06;;;;;;;21.15;10.80;;;;;;;8.36;61.31;101773.97;6255908;23;20009;-84
2022/03/14 00:05:32;;;;;;;16.23;10.25;;;;;;;8.27;61.68;101785.22;6255349;23;20008;-86
2022/03/14 00:08:00;;;;;;;17.50;11.05;;;;;;;8.42;61.16;101781.41;6254567;23;20012;-85
2022/03/14 00:10:30;;;;;;;17.40;11.25;;;;;;;8.44;61.56;101778.66;6253237;23;20077;-84
2022/03/14 00:12:58;;;;;;;18.60;11.52;;;;;;;8.37;61.41;101780.94;6254119;23;20012;-83
2022/03/14 00:15:29;;;;;;;17.00;9.82;;;;;;;8.38;61.52;101780.00;6253272;23;20011;-81
2022/03/14 00:17:56;;;;;;;18.38;10.63;;;;;;;8.26;62.87;101788.81;6226616;23;20028;-87
2022/03/14 00:20:22;;;;;;;19.08;11.10;;;;;;;8.21;62.66;101793.59;6226535;23;20020;-86
2022/03/14 00:22:48;;;;;;;20.20;10.88;;;;;;;8.07;63.15;101791.16;6253186;23;20086;-82
2022/03/14 00:25:14;;;;;;;16.08;10.00;;;;;;;7.79;64.72;101785.28;6200320;23;20008;-85
2022/03/14 00:27:40;;;;;;;18.08;11.02;;;;;;;7.92;64.63;101792.31;6257589;23;20047;-81
2022/03/14 00:30:13;;;;;;;17.05;11.07;;;;;;;7.88;64.94;101789.06;6229087;23;20026;-88
2022/03/14 00:32:40;;;;;;;19.90;10.32;;;;;;;7.89;64.45;101797.81;6255401;23;20004;-84
2022/03/14 00:35:10;;;;;;;18.30;11.43;;;;;;;7.67;65.73;101794.09;6255073;23;20023;-90
2022/03/14 00:41:23;;;;;;;15.20;10.82;;;;;;;7.90;65.36;101802.13;6257309;23;20069;-88
2022/03/14 00:43:54;;;;;;;15.38;11.00;;;;;;;7.85;65.40;101796.34;6255774;23;20008;-87
2022/03/14 00:46:23;;;;;;;17.00;11.13;;;;;;;7.49;67.07;101794.63;6254299;23;20344;-88
2022/03/14 00:48:54;;;;;;;20.70;11.88;;;;;;;7.65;67.04;101800.47;6233812;23;20053;-79
2022/03/14 00:51:21;;;;;;;21.00;10.85;;;;;;;7.84;65.72;101806.06;6244811;23;20586;-80
2022/03/14 00:53:47;;;;;;;19.45;11.25;;;;;;;7.77;66.25;101810.94;6273165;22;20000;-87
2022/03/14 00:56:13;;;;;;;18.02;11.30;;;;;;;7.51;67.63;101821.72;6272846;22;20027;-87
2022/03/14 00:58:39;;;;;;;21.02;11.30;;;;;;;7.55;67.54;101813.47;6228434;23;20012;-88
2022/03/14 01:01:07;;;;;;;18.50;10.75;;;;;;;7.68;67.09;101822.19;6199746;23;20016;-86
2022/03/14 01:03:32;;;;;;;19.75;11.90;;;;;;;7.55;67.56;101826.66;6250533;23;20058;-84
2022/03/14 01:05:59;;;;;;;18.70;11.15;;;;;;;7.29;69.48;101825.88;6251282;23;20083;-86
2022/03/14 01:08:24;;;;;;;19.67;11.73;;;;;;;7.55;68.71;101821.41;6250082;23;20082;-84
2022/03/14 01:10:50;;;;;;;19.30;11.38;;;;;;;7.41;69.29;101828.59;6248761;23;20155;-84
2022/03/14 01:13:16;;;;;;;16.05;10.80;;;;;;;7.63;68.92;101818.19;6249235;23;20084;-83
2022/03/14 01:15:41;;;;;;;18.70;11.45;;;;;;;7.47;69.63;101820.25;6223433;23;20439;-85
2022/03/14 01:18:07;;;;;;;23.70;11.68;;;;;;;7.66;69.39;101823.22;6250398;23;20019;-86
2022/03/14 01:20:33;;;;;;;18.50;11.75;;;;;;;7.68;69.08;101831.88;6247854;23;20015;-89
2022/03/14 01:22:59;;;;;;;20.10;11.75;;;;;;;7.64;69.49;101836.53;6249065;23;20000;-87
2022/03/14 01:25:25;;;;;;;17.40;11.43;;;;;;;7.57;70.38;101845.84;6249096;23;20038;-88
2022/03/14 01:27:51;;;;;;;22.13;11.65;;;;;;;7.49;70.59;101848.19;6249464;23;20008;-83
2022/03/14 01:30:20;;;;;;;14.90;11.38;;;;;;;7.54;70.72;101834.69;6250928;23;20145;-89
2022/03/14 01:32:46;;;;;;;18.63;11.20;;;;;;;7.67;70.52;101836.31;6249194;23;20031;-87
2022/03/14 01:35:12;;;;;;;21.02;11.07;;;;;;;7.77;70.20;101839.97;6248525;23;20063;-84
2022/03/14 01:37:38;;;;;;;18.80;11.15;;;;;;;7.61;71.34;101839.41;6251356;23;20356;-82
2022/03/14 01:40:06;;;;;;;20.58;10.90;;;;;;;7.25;72.72;101842.03;6224322;23;20490;-89
2022/03/14 01:42:31;;;;;;;20.85;12.57;;;;;;;7.18;73.69;101832.88;6249133;23;20008;-82
2022/03/14 01:44:57;;;;;;;21.95;12.35;;;;;;;7.27;73.33;101840.13;6221802;23;20004;-79
2022/03/14 01:47:22;;;;;;;17.90;11.95;;;;;;;7.39;73.13;101839.25;6248649;23;20023;-89
2022/03/14 01:49:49;;;;;;;22.90;12.40;;;;;;;7.15;74.06;101835.72;6249248;23;20008;-86
2022/03/14 01:52:14;;;;;;;20.75;12.15;;;;;;;7.22;73.76;101845.72;6248334;23;20099;-79
2022/03/14 01:54:43;;;;;;;17.17;11.30;;;;;;;7.35;73.89;101850.13;6251194;23;20008;-89
2022/03/14 01:57:10;;;;;;;20.83;11.65;;;;;;;7.36;72.74;101857.94;6251537;23;20024;-87
2022/03/14 01:59:37;;;;;;;23.77;11.80;;;;;;;7.27;73.52;101853.31;6252354;23;20078;-86
2022/03/14 02:02:11;;;;;;;20.58;11.57;;;;;;;7.39;72.67;101857.72;6251271;23;20042;-84
2022/03/14 02:04:37;;;;;;;18.75;11.85;;;;;;;7.37;72.83;101854.34;6250657;23;20035;-85
2022/03/14 02:07:04;;;;;;;20.38;11.73;;;;;;;7.26;73.28;101856.88;6251188;23;20436;-88
2022/03/14 02:09:30;;;;;;;19.38;12.02;;;;;;;7.38;72.78;101860.47;6251176;23;20008;-82
2022/03/14 02:11:56;;;;;;;21.00;11.98;;;;;;;7.32;72.46;101856.47;6251100;23;20020;-87
2022/03/14 02:14:24;;;;;;;21.42;12.68;;;;;;;7.12;73.24;101857.03;6250551;23;20012;-84
2022/03/14 02:16:51;;;;;;;20.05;12.63;;;;;;;7.02;73.64;101856.00;6250865;23;20067;-81
2022/03/14 02:19:18;;;;;;;18.13;11.75;;;;;;;7.22;72.69;101850.97;6251311;23;20063;-86
2022/03/14 02:21:44;;;;;;;19.58;12.63;;;;;;;7.39;71.65;101852.44;6250380;23;20011;-83
2022/03/14 02:24:10;;;;;;;18.77;11.48;;;;;;;7.42;71.68;101859.31;6250247;23;20016;-85
2022/03/14 02:26:40;;;;;;;19.95;12.43;;;;;;;7.43;71.90;101856.53;6250557;23;20391;-85
2022/03/14 02:29:07;;;;;;;19.00;12.00;;;;;;;7.14;72.56;101858.59;6197934;23;20099;-88
2022/03/14 02:31:36;;;;;;;20.17;11.52;;;;;;;7.20;72.98;101860.81;6250206;23;20039;-88
2022/03/14 02:34:06;;;;;;;24.20;12.25;;;;;;;6.89;74.72;101860.44;6250380;23;20012;-82
2022/03/14 02:36:32;;;;;;;18.80;12.20;;;;;;;6.83;75.20;101850.31;6251045;23;20015;-87
2022/03/14 02:38:58;;;;;;;21.48;12.18;;;;;;;6.89;75.10;101858.63;6249857;23;20012;-80
2022/03/14 02:41:24;;;;;;;22.25;12.32;;;;;;;6.83;75.51;101859.03;6249361;23;20008;-86
2022/03/14 02:43:55;;;;;;;22.88;12.07;;;;;;;6.98;75.24;101863.25;6249535;23;20447;-88
2022/03/14 02:46:21;;;;;;;18.10;12.70;;;;;;;6.89;75.61;101863.06;6248885;23;20058;-79
2022/03/14 02:48:46;;;;;;;21.13;12.90;;;;;;;6.94;75.38;101866.22;6248838;23;20426;-85
2022/03/14 02:51:12;;;;;;;19.45;13.35;;;;;;;6.96;75.62;101865.16;6222495;23;20363;-79
2022/03/14 02:53:38;;;;;;;23.30;12.40;;;;;;;6.97;75.43;101876.53;6249811;23;20007;-81
2022/03/14 02:56:04;;;;;;;21.73;12.98;;;;;;;6.98;74.87;101868.53;6250103;23;20035;-79
2022/03/14 02:58:32;;;;;;;20.88;12.38;;;;;;;6.90;75.41;101870.00;6249109;23;20313;-86
2022/03/14 03:00:58;;;;;;;25.40;13.30;;;;;;;6.87;75.74;101863.16;6249425;23;20004;-83
2022/03/14 03:03:23;;;;;;;24.13;13.10;;;;;;;7.22;73.46;101866.81;6249317;23;20474;-87
2022/03/14 03:05:49;;;;;;;22.10;12.20;;;;;;;7.13;74.15;101861.34;6249765;23;20008;-78
2022/03/14 03:08:15;;;;;;;18.55;12.98;;;;;;;7.12;73.95;101864.94;6248826;23;20004;-78
2022/03/14 03:10:42;;;;;;;21.38;13.20;;;;;;;7.03;74.52;101876.09;6252260;23;20016;-82
2022/03/14 03:13:10;;;;;;;24.85;13.65;;;;;;;7.17;74.43;101878.63;6249463;23;20011;-82
2022/03/14 03:15:37;;;;;;;19.98;13.35;;;;;;;7.06;74.57;101891.75;6249418;23;20012;-82
2022/03/14 03:18:03;;;;;;;20.63;13.20;;;;;;;6.84;75.82;101894.13;6249984;23;20008;-86
2022/03/14 03:20:28;;;;;;;20.00;13.60;;;;;;;6.85;75.75;101888.78;6250215;23;20019;-86
2022/03/14 03:22:54;;;;;;;22.00;13.73;;;;;;;6.98;75.63;101889.63;6249431;23;20008;-84
2022/03/14 03:25:19;;;;;;;23.10;14.52;;;;;;;7.04;75.41;101896.25;6222901;23;20062;-88
2022/03/14 03:27:48;;;;;;;23.40;12.95;;;;;;;6.97;76.04;101893.19;6222680;23;20016;-85
2022/03/14 03:30:17;;;;;;;22.73;13.63;;;;;;;7.34;73.47;101899.41;6250342;23;20328;-80
2022/03/14 03:32:43;;;;;;;22.83;14.00;;;;;;;7.29;73.40;101901.53;6250069;23;20000;-85
2022/03/14 03:35:09;;;;;;;26.55;13.20;;;;;;;7.29;73.74;101893.63;6249526;23;20439;-80
2022/03/14 03:37:37;;;;;;;22.05;13.68;;;;;;;7.07;74.33;101890.78;6223087;23;20012;-84
2022/03/14 03:40:03;;;;;;;21.65;14.23;;;;;;;6.76;76.46;101895.50;6249922;23;20436;-85
2022/03/14 03:42:29;;;;;;;27.50;13.82;;;;;;;6.96;75.46;101898.59;6249911;23;20266;-85
2022/03/14 03:44:55;;;;;;;20.67;13.48;;;;;;;6.77;75.99;101901.63;6249329;23;20038;-82
2022/03/14 03:47:20;;;;;;;23.45;13.95;;;;;;;6.70;77.14;101911.72;6223870;23;20019;-85
2022/03/14 03:49:46;;;;;;;25.83;14.07;;;;;;;6.50;78.88;101908.72;6224104;23;20004;-80
2022/03/14 03:52:11;;;;;;;21.33;14.00;;;;;;;6.73;77.47;101911.53;6224923;23;20040;-78
2022/03/14 03:54:38;;;;;;;21.05;14.20;;;;;;;6.75;77.00;101914.91;6262030;23;20012;-78
2022/03/14 03:57:05;;;;;;;21.67;13.88;;;;;;;6.54;78.49;101913.69;6268597;22;19981;-81
2022/03/14 03:59:31;;;;;;;24.40;14.75;;;;;;;6.65;78.07;101908.56;6273360;22;20035;-81
2022/03/14 04:01:56;;;;;;;22.50;14.75;;;;;;;6.66;77.37;101912.88;6261874;23;20004;-83
2022/03/14 04:04:23;;;;;;;22.83;14.45;;;;;;;6.69;77.50;101917.94;6251766;23;20008;-80
2022/03/14 04:06:51;;;;;;;20.40;13.13;;;;;;;6.71;77.68;101916.06;6250512;23;20063;-86
2022/03/14 04:09:17;;;;;;;20.23;13.93;;;;;;;6.95;76.60;101917.97;6250690;23;20007;-81
2022/03/14 04:11:42;;;;;;;25.58;15.10;;;;;;;6.83;76.96;101927.53;6249456;23;20012;-80
2022/03/14 04:14:10;;;;;;;21.08;14.68;;;;;;;7.00;76.58;101929.03;6250518;23;20281;-84
2022/03/14 04:16:40;;;;;;;20.95;14.02;;;;;;;6.75;77.75;101933.34;6250201;23;20015;-82
2022/03/14 04:19:05;;;;;;;26.05;14.27;;;;;;;6.51;79.63;101931.50;6252765;23;20015;-80
2022/03/14 04:21:36;;;;;;;22.60;14.30;;;;;;;6.48;80.64;101945.72;6253175;23;20349;-84
2022/03/14 04:24:04;;;;;;;21.63;14.43;;;;;;;6.43;80.29;101945.16;6252462;23;20012;-85
2022/03/14 04:26:30;;;;;;;19.27;13.98;;;;;;;6.63;79.78;101946.47;6249154;23;20012;-81
2022/03/14 04:28:55;;;;;;;30.55;15.82;;;;;;;6.49;80.28;101946.56;6249567;23;20447;-82
2022/03/14 04:31:22;;;;;;;26.17;14.73;;;;;;;6.66;79.13;101952.38;6254282;23;20091;-83
2022/03/14 04:33:48;;;;;;;31.33;15.77;;;;;;;6.71;78.74;101955.56;6249516;23;20016;-82
2022/03/14 04:36:14;;;;;;;24.52;15.18;;;;;;;6.67;79.03;101962.00;6249866;23;20015;-84
2022/03/14 04:38:40;;;;;;;24.08;15.35;;;;;;;6.71;79.10;101958.22;6199031;23;20008;-83
2022/03/14 04:41:06;;;;;;;24.92;15.43;;;;;;;6.55;80.02;101962.81;6225430;23;20016;-86
2022/03/14 04:43:31;;;;;;;22.38;14.82;;;;;;;6.53;80.43;101972.59;6252866;23;20008;-89
2022/03/14 04:45:57;;;;;;;27.85;14.57;;;;;;;6.67;80.01;101974.31;6251960;23;20098;-87
2022/03/14 04:48:23;;;;;;;25.55;14.65;;;;;;;6.76;79.73;101979.00;6251628;23;20430;-83
2022/03/14 04:50:50;;;;;;;30.65;15.70;;;;;;;6.84;78.93;101978.47;6224258;23;20011;-86
2022/03/14 04:53:17;;;;;;;23.02;15.73;;;;;;;6.73;78.94;101982.66;6252601;23;20030;-85
2022/03/14 04:55:45;;;;;;;22.13;14.50;;;;;;;6.57;80.04;101979.34;6224593;23;20019;-87
2022/03/14 04:58:12;;;;;;;24.08;15.60;;;;;;;6.46;80.69;101991.53;6225309;23;20139;-86
2022/03/14 05:00:38;;;;;;;25.65;15.90;;;;;;;6.36;81.65;101986.03;6253166;23;20439;-87
2022/03/14 05:03:05;;;;;;;27.23;16.95;;;;;;;6.49;81.11;101992.19;6254663;23;20019;-85
2022/03/14 05:05:36;;;;;;;24.23;15.60;;;;;;;6.59;81.10;102002.97;6251775;23;20011;-86
2022/03/14 05:08:02;;;;;;;25.17;15.80;;;;;;;6.60;80.82;102004.63;6257449;23;20004;-84
2022/03/14 05:10:29;;;;;;;27.40;16.70;;;;;;;6.49;81.42;101997.47;6266832;23;19996;-83
2022/03/14 05:12:54;;;;;;;26.15;15.95;;;;;;;6.78;80.33;102013.13;6263903;23;20032;-85
2022/03/14 05:15:20;;;;;;;22.75;15.15;;;;;;;6.99;78.88;102016.97;6226177;23;20008;-86
2022/03/14 05:17:47;;;;;;;24.98;16.17;;;;;;;6.83;78.87;102017.13;6251857;23;20444;-85
2022/03/14 05:20:14;;;;;;;29.65;16.85;;;;;;;6.70;79.52;102017.09;6251401;23;20007;-86
2022/03/14 05:22:49;;;;;;;38.08;17.00;;;;;;;6.73;79.18;102027.44;6225185;23;20347;-86
2022/03/14 05:25:18;;;;;;;32.35;17.70;;;;;;;6.84;78.61;102028.53;6250640;23;20099;-83
2022/03/14 05:27:45;;;;;;;32.33;16.75;;;;;;;6.91;77.59;102029.81;6252308;23;20007;-88
2022/03/14 05:30:10;;;;;;;31.27;16.90;;;;;;;6.74;78.83;102029.13;6231820;23;20016;-87
2022/03/14 05:32:37;;;;;;;33.33;15.90;;;;;;;6.88;78.04;102028.22;6225887;23;20018;-89
2022/03/14 05:35:04;;;;;;;29.77;15.43;;;;;;;6.76;78.84;102029.88;6226245;23;20019;-89
2022/03/14 05:37:30;;;;;;;29.48;17.15;;;;;;;6.68;79.70;102032.19;6250511;23;20376;-87
2022/03/14 05:39:56;;;;;;;35.35;16.95;;;;;;;6.62;79.91;102031.75;6249333;23;20035;-90
2022/03/14 05:42:23;;;;;;;27.92;16.63;;;;;;;6.60;80.52;102036.25;6249448;23;20012;-86
2022/03/14 05:44:49;;;;;;;30.08;16.30;;;;;;;6.60;80.57;102031.81;6249206;23;20547;-88
2022/03/14 05:47:14;;;;;;;27.20;17.00;;;;;;;6.59;80.79;102038.06;6199972;23;20016;-83
2022/03/14 05:49:42;;;;;;;27.58;17.33;;;;;;;6.73;79.82;102043.25;6223697;23;20012;-90
2022/03/14 05:52:09;;;;;;;32.63;17.73;;;;;;;6.88;79.17;102035.28;6247936;23;20463;-85
2022/03/14 05:54:37;;;;;;;34.53;18.52;;;;;;;6.76;79.89;102043.03;6198779;23;20095;-87
2022/03/14 05:57:03;;;;;;;26.80;16.13;;;;;;;6.76;80.00;102047.50;6224048;23;20431;-86
2022/03/14 05:59:28;;;;;;;27.75;17.33;;;;;;;6.68;80.82;102055.91;6249174;23;20008;-86
2022/03/14 06:01:54;;;;;;;26.88;17.52;;;;;;;6.84;79.96;102052.25;6220497;23;20015;-82
2022/03/14 06:04:19;;;;;;;24.38;16.63;;;;;;;6.75;80.46;102059.81;6247327;23;20036;-82
2022/03/14 06:06:47;;;;;;;29.77;16.63;;;;;;;6.71;80.59;102053.06;6220167;23;20012;-82
2022/03/14 06:09:13;;;;;;;26.88;16.92;;;;;;;6.79;80.14;102057.84;6251219;23;20004;-84
2022/03/14 06:11:39;;;;;;;34.38;17.00;;;;;;;6.74;80.30;102060.75;6249833;23;20023;-79
2022/03/14 06:14:06;;;;;;;28.63;16.92;;;;;;;6.68;80.36;102066.44;6247948;23;20063;-79
2022/03/14 06:16:33;;;;;;;28.95;17.33;;;;;;;6.70;80.46;102068.94;6250029;23;20099;-82
2022/03/14 06:18:59;;;;;;;27.73;17.48;;;;;;;6.66;80.72;102070.94;6249539;23;20443;-84
2022/03/14 06:21:25;;;;;;;25.95;16.08;;;;;;;6.69;80.51;102091.00;6249629;23;20030;-82
2022/03/14 06:23:50;;;;;;;32.22;15.93;;;;;;;6.88;79.60;102094.13;6228634;23;20289;-80
2022/03/14 06:26:17;;;;;;;26.52;16.75;;;;;;;6.81;80.23;102097.25;6250269;23;20016;-79
2022/03/14 06:28:43;;;;;;;26.55;17.13;;;;;;;6.74;80.82;102099.44;6247421;23;20012;-80
2022/03/14 06:31:10;;;;;;;27.45;16.15;;;;;;;6.74;80.62;102097.66;6218959;23;20068;-81
2022/03/14 06:33:36;;;;;;;32.50;17.02;;;;;;;6.63;82.00;102102.75;6219344;23;20012;-85
2022/03/14 06:36:02;;;;;;;31.80;16.80;;;;;;;6.76;81.52;102101.00;6244125;23;20149;-84
2022/03/14 06:38:28;;;;;;;28.88;17.17;;;;;;;6.67;81.97;102104.25;6218909;23;20036;-84
2022/03/14 06:40:56;;;;;;;31.38;17.90;;;;;;;6.65;82.50;102114.06;6246915;23;20031;-79
2022/03/14 06:43:23;;;;;;;29.75;17.15;;;;;;;6.66;82.58;102121.00;6247768;23;20015;-83
2022/03/14 06:45:49;;;;;;;28.70;16.77;;;;;;;6.62;83.08;102113.41;6249302;23;20392;-84
2022/03/14 06:48:15;;;;;;;32.97;17.25;;;;;;;6.62;83.17;102119.53;6250086;23;20012;-82
2022/03/14 06:50:41;;;;;;;28.58;17.52;;;;;;;6.64;83.00;102120.25;6248833;23;20011;-78
2022/03/14 06:53:07;;;;;;;26.10;16.45;;;;;;;6.78;82.26;102129.91;6249721;23;20086;-85
2022/03/14 06:55:34;;;;;;;30.38;17.55;;;;;;;6.74;82.24;102134.53;6252590;23;20104;-89
2022/03/14 06:58:00;;;;;;;26.27;17.17;;;;;;;6.93;80.87;102128.06;6263562;23;20008;-83
2022/03/14 07:00:29;;;;;;;32.83;17.55;;;;;;;7.15;79.54;102128.38;6269063;23;19996;-83
2022/03/14 07:02:56;;;;;;;29.60;17.42;;;;;;;7.12;79.63;102129.44;6274027;22;20017;-83
2022/03/14 07:05:24;;;;;;;27.92;17.30;;;;;;;7.27;78.91;102127.56;6265455;22;20511;-86
2022/03/14 07:07:53;;;;;;;33.10;17.15;;;;;;;7.32;77.74;102124.63;6250657;23;20012;-83
2022/03/14 07:10:19;;;;;;;28.98;16.77;;;;;;;7.12;79.29;102133.84;6250971;23;20483;-82
2022/03/14 07:12:46;;;;;;;35.03;17.73;;;;;;;7.18;79.14;102131.66;6248942;23;20032;-85
2022/03/14 07:15:14;;;;;;;28.02;17.58;;;;;;;7.24;79.04;102138.31;6248358;23;20004;-83
2022/03/14 07:17:41;;;;;;;28.80;16.73;;;;;;;7.17;79.29;102144.94;6221951;23;20008;-82
2022/03/14 07:20:07;;;;;;;25.30;17.33;;;;;;;7.31;78.09;102144.03;6248018;23;20035;-84
2022/03/14 07:22:36;;;;;;;31.35;17.30;;;;;;;7.31;78.00;102152.78;6248358;23;20024;-83
2022/03/14 07:25:06;;;;;;;31.05;17.65;;;;;;;7.26;77.80;102149.59;6248711;23;20091;-85
2022/03/14 07:27:33;;;;;;;28.58;17.92;;;;;;;7.15;78.48;102149.47;6247533;23;20009;-84
2022/03/14 07:29:59;;;;;;;30.52;17.33;;;;;;;7.11;78.20;102159.38;6247669;23;20020;-83
2022/03/14 07:32:24;;;;;;;26.67;17.02;;;;;;;7.25;77.77;102164.59;6247125;23;20000;-82
2022/03/14 07:34:50;;;;;;;25.00;17.30;;;;;;;7.24;77.54;102162.03;6247831;23;20139;-81
2022/03/14 07:37:15;;;;;;;31.27;17.48;;;;;;;7.25;77.85;102167.22;6250876;23;20091;-81
2022/03/14 07:39:41;;;;;;;35.95;17.67;;;;;;;7.29;78.23;102178.41;6220914;23;20008;-82
2022/03/14 07:42:07;;;;;;;27.60;17.25;;;;;;;7.41;77.38;102177.59;6248818;23;20044;-81
2022/03/14 07:44:35;;;;;;;26.70;17.48;;;;;;;7.45;76.15;102181.72;6249572;23;20015;-83
2022/03/14 07:47:03;;;;;;;38.92;17.50;;;;;;;7.47;76.21;102182.47;6247341;23;20012;-82
2022/03/14 07:49:29;;;;;;;29.08;17.08;;;;;;;7.48;76.25;102193.88;6246818;23;20013;-80
2022/03/14 07:51:54;;;;;;;29.33;17.75;;;;;;;7.54;75.41;102190.81;6236693;23;20340;-81
2022/03/14 07:54:24;;;;;;;27.60;17.70;;;;;;;7.78;74.24;102195.31;6244911;23;20023;-82
2022/03/14 07:56:49;;;;;;;24.88;17.63;;;;;;;7.89;74.82;102188.47;6248665;23;20007;-80
2022/03/14 07:59:15;;;;;;;27.45;16.65;;;;;;;8.15;74.71;102184.88;6249021;23;20008;-82
2022/03/14 08:01:41;;;;;;;24.30;15.50;;;;;;;8.51;73.28;102198.22;6222494;23;20039;-81
2022/03/14 08:04:06;;;;;;;31.73;17.27;;;;;;;8.39;72.38;102206.13;6248367;23;20411;-81
2022/03/14 08:06:35;;;;;;;25.20;15.82;;;;;;;8.20;72.91;102206.53;6246094;23;20012;-80
2022/03/14 08:09:02;;;;;;;29.45;16.17;;;;;;;8.13;73.62;102213.19;6246761;23;20011;-81
2022/03/14 08:11:30;;;;;;;27.92;17.08;;;;;;;8.32;73.08;102212.81;6246682;23;20059;-79
2022/03/14 08:13:57;;;;;;;27.67;17.65;;;;;;;8.41;72.74;102220.94;6247529;23;20012;-80
2022/03/14 08:16:23;;;;;;;28.42;16.05;;;;;;;8.60;71.25;102229.25;6247077;23;20059;-80
2022/03/14 08:18:49;;;;;;;58.08;18.02;;;;;;;8.65;71.04;102223.66;6247558;23;20020;-81
2022/03/14 08:21:14;;;;;;;34.90;17.10;;;;;;;8.56;71.17;102227.78;6248292;23;20004;-80
2022/03/14 08:23:41;;;;;;;26.65;16.73;;;;;;;8.55;71.40;102214.69;6248594;23;20066;-81
2022/03/14 08:26:07;;;;;;;25.23;16.77;;;;;;;8.46;71.98;102210.88;6247455;23;20019;-83
2022/03/14 08:28:34;;;;;;;25.55;17.02;;;;;;;8.46;71.96;102221.44;6249230;23;20039;-80
2022/03/14 08:31:00;;;;;;;25.98;15.77;;;;;;;8.66;71.42;102220.91;6219854;23;20008;-81
2022/03/14 08:33:28;;;;;;;32.75;16.48;;;;;;;8.87;70.92;102221.19;6248183;23;20027;-80
2022/03/14 08:35:59;;;;;;;23.17;16.23;;;;;;;8.81;69.75;102232.19;6220972;23;20459;-83
2022/03/14 08:38:25;;;;;;;21.35;15.10;;;;;;;8.93;69.68;102227.81;6220293;23;20292;-84
2022/03/14 08:40:50;;;;;;;25.85;15.60;;;;;;;9.16;68.14;102233.16;6243331;23;20083;-83
2022/03/14 08:43:16;;;;;;;23.10;15.20;;;;;;;9.02;68.43;102238.59;6219406;23;20100;-83
2022/03/14 08:45:43;;;;;;;24.90;14.95;;;;;;;9.11;68.51;102239.75;6246712;23;20064;-84
2022/03/14 08:48:11;;;;;;;25.35;15.68;;;;;;;8.97;68.66;102242.53;6246666;23;20431;-81
2022/03/14 08:50:38;;;;;;;23.33;15.18;;;;;;;8.92;69.05;102248.13;6246365;23;20012;-81
2022/03/14 08:53:04;;;;;;;27.98;15.13;;;;;;;8.80;69.20;102241.91;6245401;23;20008;-82
2022/03/14 08:55:30;;;;;;;28.45;14.77;;;;;;;8.87;69.91;102239.69;6246152;23;20008;-83
2022/03/14 08:57:56;;;;;;;23.42;14.52;;;;;;;9.08;68.74;102247.91;6194274;23;20004;-81
2022/03/14 09:00:24;;;;;;;25.63;13.38;;;;;;;9.26;67.69;102255.34;6246703;23;20055;-81
2022/03/14 09:02:50;;;;;;;36.05;15.65;;;;;;;9.17;68.44;102250.72;6247675;23;20424;-84
2022/03/14 09:05:17;;;;;;;32.03;15.18;;;;;;;9.48;67.33;102259.88;6219778;23;20018;-82
2022/03/14 09:07:43;;;;;;;29.20;14.05;;;;;;;9.38;67.31;102263.34;6246259;23;20031;-81
2022/03/14 09:10:13;;;;;;;23.83;14.07;;;;;;;9.78;66.30;102275.31;6246402;23;20000;-82
2022/03/14 09:12:39;;;;;;;30.20;14.35;;;;;;;9.66;66.20;102263.00;6246079;23;20059;-82
2022/03/14 09:15:07;;;;;;;24.85;13.90;;;;;;;9.78;66.27;102270.88;6247183;23;20042;-84
2022/03/14 09:17:35;;;;;;;28.65;13.13;;;;;;;10.01;64.67;102269.13;6246342;23;20077;-82
2022/03/14 09:20:01;;;;;;;31.50;13.27;;;;;;;10.13;64.34;102267.38;6247506;23;20008;-81
2022/03/14 09:22:28;;;;;;;23.52;11.88;;;;;;;10.33;62.99;102272.88;6219990;23;20012;-81
2022/03/14 09:24:55;;;;;;;30.30;12.60;;;;;;;10.15;63.18;102270.78;6248424;23;20008;-82
2022/03/14 09:27:23;;;;;;;22.73;13.07;;;;;;;10.45;62.97;102263.13;6247947;23;20039;-85
2022/03/14 09:29:50;;;;;;;22.20;12.18;;;;;;;10.58;62.19;102268.31;6220003;23;20494;-83
2022/03/14 09:32:16;;;;;;;21.38;10.73;;;;;;;10.90;61.62;102269.31;6247490;23;20332;-82
2022/03/14 09:34:42;;;;;;;17.52;11.88;;;;;;;10.59;61.51;102267.34;6248484;23;20451;-83
2022/03/14 09:37:08;;;;;;;24.38;13.15;;;;;;;10.43;62.54;102264.22;6248457;23;20013;-82
2022/03/14 09:39:34;;;;;;;22.70;13.07;;;;;;;10.46;62.57;102275.44;6248040;23;20019;-83
2022/03/14 09:42:01;;;;;;;25.60;11.95;;;;;;;10.64;61.76;102273.97;6220270;23;20015;-84
2022/03/14 09:44:29;;;;;;;20.05;8.77;;;;;;;10.83;59.45;102268.09;6220252;23;20377;-86
2022/03/14 09:47:00;;;;;;;16.70;8.35;;;;;;;10.70;59.45;102252.31;6194978;23;20008;-83
2022/03/14 09:49:27;;;;;;;17.05;8.73;;;;;;;10.72;59.26;102260.97;6246859;23;20008;-83
2022/03/14 09:51:53;;;;;;;14.77;8.85;;;;;;;11.08;58.46;102257.22;6247383;23;20016;-81
2022/03/14 09:54:21;;;;;;;18.30;8.93;;;;;;;12.04;55.77;102257.25;6256458;23;20336;-81
2022/03/14 09:57:05;;;;;;;15.52;9.20;;;;;;;12.91;52.93;102265.59;6233305;23;20004;-79
2022/03/14 09:59:32;;;;;;;16.80;9.13;;;;;;;12.83;52.38;102277.84;6244844;22;20016;-78
2022/03/14 10:02:00;;;;;;;15.75;8.60;;;;;;;12.56;52.40;102275.78;6272403;22;20012;-77
2022/03/14 10:04:26;;;;;;;16.60;8.80;;;;;;;12.37;53.65;102273.00;6252209;23;20012;-87
2022/03/14 10:06:52;;;;;;;17.77;9.25;;;;;;;12.85;52.07;102276.78;6248109;23;20015;-82
2022/03/14 10:09:17;;;;;;;17.70;9.43;;;;;;;12.72;52.41;102270.00;6247113;23;20044;-81
2022/03/14 10:11:43;;;;;;;16.08;8.38;;;;;;;12.67;53.09;102278.34;6246690;23;20016;-82
2022/03/14 10:14:11;;;;;;;14.23;8.38;;;;;;;13.18;51.76;102280.97;6246808;23;20419;-82
2022/03/14 10:16:37;;;;;;;15.63;8.95;;;;;;;13.09;50.69;102278.28;6246503;23;20028;-82
2022/03/14 10:19:07;;;;;;;15.80;7.80;;;;;;;13.34;50.36;102283.09;6248237;23;20008;-79
2022/03/14 10:21:42;;;;;;;15.98;7.78;;;;;;;13.58;48.34;102280.91;6250013;23;20024;-81
2022/03/14 10:24:10;;;;;;;16.73;8.23;;;;;;;13.23;47.58;102284.06;6222875;23;20018;-80
2022/03/14 10:26:39;;;;;;;16.75;8.38;;;;;;;12.86;48.59;102278.44;6223522;23;20105;-81
2022/03/14 10:29:10;;;;;;;18.13;8.75;;;;;;;12.81;48.79;102279.81;6248093;23;20297;-82
2022/03/14 10:31:47;;;;;;;19.55;9.05;;;;;;;12.18;51.50;102268.44;6194755;23;20627;-82
2022/03/14 10:34:18;;;;;;;14.20;8.48;;;;;;;12.24;50.04;102270.56;6247712;23;20012;-82
2022/03/14 10:36:55;;;;;;;14.13;8.40;;;;;;;12.22;48.86;102274.31;6247616;23;20170;-81
2022/03/14 10:39:22;;;;;;;14.48;9.18;;;;;;;12.25;50.84;102274.06;6247651;23;20455;-81
2022/03/14 10:42:03;;;;;;;17.50;9.77;;;;;;;13.00;50.00;102266.59;6247776;23;20008;-84
2022/03/14 10:44:29;;;;;;;16.08;9.93;;;;;;;13.24;48.47;102258.28;6248824;23;20016;-83
2022/03/14 10:47:00;;;;;;;24.25;9.85;;;;;;;13.30;49.14;102255.06;6248359;23;20758;-82
2022/03/14 10:49:30;;;;;;;17.73;10.35;;;;;;;13.51;48.04;102266.47;6247816;23;20054;-82
2022/03/14 10:52:02;;;;;;;20.55;10.43;;;;;;;13.37;48.19;102262.38;6247365;23;20022;-82
2022/03/14 10:54:28;;;;;;;15.18;10.48;;;;;;;13.02;49.72;102250.50;6248076;23;20012;-81
2022/03/14 10:57:19;;;;;;;20.92;9.48;;;;;;;12.99;49.04;102251.63;6247538;23;20347;-80
2022/03/14 10:59:47;;;;;;;19.42;9.88;;;;;;;12.80;48.98;102257.69;6247700;23;20054;-83
2022/03/14 11:02:19;;;;;;;17.50;9.65;;;;;;;12.56;49.12;102253.69;6248084;23;20083;-81
2022/03/14 11:04:56;;;;;;;15.37;9.03;;;;;;;12.20;49.30;102250.53;6247579;23;20016;-83
2022/03/14 11:07:32;;;;;;;17.38;9.93;;;;;;;12.12;50.45;102246.84;6247603;23;20000;-81
2022/03/14 11:09:59;;;;;;;15.65;9.90;;;;;;;12.33;50.10;102247.66;6247611;23;20016;-84
2022/03/14 11:12:27;;;;;;;17.08;10.52;;;;;;;12.40;50.15;102243.50;6220761;23;20023;-82
2022/03/14 11:14:59;;;;;;;22.27;10.07;;;;;;;12.50;49.89;102233.75;6221167;23;20019;-81
2022/03/14 11:17:27;;;;;;;16.80;9.75;;;;;;;13.10;50.10;102237.34;6220492;23;20090;-82
2022/03/14 11:19:54;;;;;;;17.90;9.40;;;;;;;13.17;47.56;102239.34;6220856;23;20428;-84